Time;durP1;ratioP1;P1;durP2;ratioP2;P2;SDS_P1;SDS_P2;PMS_P1;PMS_P2;Temp;Humidity;BMP_temperature;BMP_pressure;BME280_temperature;BME280_humidity;BME280_pressure;Samples;Min_cycle;Max_cycle;Signal;HPM_P1;HPM_P2
2022/06/20 00:00:50;;;;;;;6.38;2.30;;;;;;;;;;5010310;28;20444;-75
2022/06/20 00:03:24;;;;;;;5.43;2.28;;;;;;;;;;5010540;28;20060;-76
2022/06/20 00:05:49;;;;;;;6.55;2.65;;;;;;;;;;5010645;28;20038;-75
2022/06/20 00:08:16;;;;;;;6.68;2.30;;;;;;;;;;5009433;28;20104;-76
2022/06/20 00:10:43;;;;;;;6.18;2.40;;;;;;;;;;5010387;28;20048;-77
2022/06/20 00:13:24;;;;;;;5.93;2.42;;;;;;;;;;5008574;28;20079;-77
2022/06/20 00:15:52;;;;;;;8.40;2.30;;;;;;;;;;5011370;28;20030;-74
2022/06/20 00:18:18;;;;;;;8.75;2.55;;;;;;;;;;5011048;28;20034;-74
2022/06/20 00:20:43;;;;;;;9.82;3.45;;;;;;;;;;5010531;28;20034;-76
2022/06/20 00:23:08;;;;;;;11.65;3.97;;;;;;;;;;5017803;28;20265;-74
2022/06/20 00:25:35;;;;;;;10.10;4.05;;;;;;;;;;5011068;28;20120;-77
2022/06/20 00:28:00;;;;;;;8.57;3.60;;;;;;;;;;5011321;28;20490;-77
2022/06/20 00:30:26;;;;;;;7.32;3.15;;;;;;;;;;5009446;28;20124;-73
2022/06/20 00:32:51;;;;;;;8.45;3.22;;;;;;;;;;5010312;28;20526;-76
2022/06/20 00:35:17;;;;;;;5.85;3.00;;;;;;;;;;5003922;28;20043;-73
2022/06/20 00:37:43;;;;;;;5.80;3.03;;;;;;;;;;5006089;28;20033;-76
2022/06/20 00:40:25;;;;;;;7.63;3.20;;;;;;;;;;5009406;28;20036;-77
2022/06/20 00:42:52;;;;;;;10.50;4.07;;;;;;;;;;5009779;28;20057;-78
2022/06/20 00:45:19;;;;;;;10.98;3.25;;;;;;;;;;5007651;28;20061;-79
2022/06/20 00:47:47;;;;;;;11.25;4.00;;;;;;;;;;5008240;28;20056;-79
2022/06/20 00:50:17;;;;;;;7.93;3.58;;;;;;;;;;5009087;28;20499;-79
2022/06/20 00:52:52;;;;;;;10.30;3.67;;;;;;;;;;5010057;28;20033;-78
2022/06/20 00:55:31;;;;;;;11.98;3.80;;;;;;;;;;5010358;28;20072;-78
2022/06/20 00:58:01;;;;;;;10.57;3.58;;;;;;;;;;5009862;28;20480;-76
2022/06/20 01:00:32;;;;;;;8.05;3.47;;;;;;;;;;5009275;28;20046;-78
2022/06/20 01:03:08;;;;;;;9.45;3.80;;;;;;;;;;5010931;28;20030;-78
2022/06/20 01:05:54;;;;;;;10.07;3.78;;;;;;;;;;5010389;28;20176;-81
2022/06/20 01:08:28;;;;;;;7.30;3.28;;;;;;;;;;5010582;28;20032;-79
2022/06/20 01:11:06;;;;;;;7.57;3.70;;;;;;;;;;5010827;28;20030;-80
2022/06/20 01:13:32;;;;;;;9.07;4.07;;;;;;;;;;5018917;28;20030;-79
2022/06/20 01:16:14;;;;;;;10.38;4.00;;;;;;;;;;5012905;28;20483;-77
2022/06/20 01:18:46;;;;;;;6.22;3.65;;;;;;;;;;5010535;28;20032;-77
2022/06/20 01:21:18;;;;;;;9.38;3.67;;;;;;;;;;5000613;28;20487;-77
2022/06/20 01:24:08;;;;;;;7.35;3.83;;;;;;;;;;4999140;28;20044;-79
2022/06/20 01:26:48;;;;;;;4.93;3.20;;;;;;;;;;5010955;28;20395;-79
2022/06/20 01:29:14;;;;;;;6.40;3.10;;;;;;;;;;5012385;28;20018;-80
2022/06/20 01:31:45;;;;;;;4.35;2.80;;;;;;;;;;5015137;28;20025;-78
2022/06/20 01:34:14;;;;;;;5.97;2.67;;;;;;;;;;5015339;28;20029;-79
2022/06/20 01:39:27;;;;;;;5.07;2.88;;;;;;;;;;5013185;28;20044;-78
2022/06/20 01:44:43;;;;;;;7.03;2.83;;;;;;;;;;5015306;28;20040;-80
2022/06/20 01:47:09;;;;;;;7.40;3.22;;;;;;;;;;5013484;28;20024;-80
2022/06/20 01:49:36;;;;;;;5.97;3.03;;;;;;;;;;5014828;28;20471;-81
2022/06/20 01:52:08;;;;;;;6.82;3.38;;;;;;;;;;5013569;28;20044;-78
2022/06/20 01:54:37;;;;;;;5.03;3.33;;;;;;;;;;5014134;28;20053;-78
2022/06/20 01:57:05;;;;;;;7.20;3.58;;;;;;;;;;5014611;28;20026;-78
2022/06/20 01:59:54;;;;;;;8.85;3.40;;;;;;;;;;5012544;28;20084;-80
2022/06/20 02:02:21;;;;;;;8.27;3.50;;;;;;;;;;5009826;28;20652;-80
2022/06/20 02:04:46;;;;;;;6.22;3.78;;;;;;;;;;5012560;28;20419;-79
2022/06/20 02:07:12;;;;;;;6.93;4.10;;;;;;;;;;5008873;28;20024;-79
2022/06/20 02:09:39;;;;;;;5.78;3.70;;;;;;;;;;5009772;28;20314;-79
2022/06/20 02:12:06;;;;;;;4.97;3.42;;;;;;;;;;5013553;28;20449;-80
2022/06/20 02:14:59;;;;;;;6.40;3.25;;;;;;;;;;5014073;28;20050;-79
2022/06/20 02:17:35;;;;;;;6.63;3.40;;;;;;;;;;4992758;28;20477;-80
2022/06/20 02:20:06;;;;;;;7.05;3.63;;;;;;;;;;4978247;28;20019;-79
2022/06/20 02:22:33;;;;;;;5.15;3.30;;;;;;;;;;4994235;28;20041;-79
2022/06/20 02:25:16;;;;;;;5.53;3.15;;;;;;;;;;4995192;28;20511;-80
2022/06/20 02:28:04;;;;;;;8.25;3.53;;;;;;;;;;4998307;28;20044;-79
2022/06/20 02:30:30;;;;;;;8.02;3.00;;;;;;;;;;5012527;28;20072;-78
2022/06/20 02:33:04;;;;;;;7.93;3.25;;;;;;;;;;5011629;28;20104;-78
2022/06/20 02:35:29;;;;;;;9.10;3.38;;;;;;;;;;5010601;28;20033;-78
2022/06/20 02:37:55;;;;;;;6.50;3.40;;;;;;;;;;5010057;28;20099;-78
2022/06/20 02:40:24;;;;;;;8.13;3.33;;;;;;;;;;5013231;28;20081;-78
2022/06/20 02:42:55;;;;;;;6.43;3.30;;;;;;;;;;4997591;28;20383;-78
2022/06/20 02:45:22;;;;;;;6.15;3.30;;;;;;;;;;5022123;28;20052;-77
2022/06/20 02:47:52;;;;;;;6.88;3.40;;;;;;;;;;5012045;28;20018;-77
2022/06/20 02:50:27;;;;;;;8.93;3.65;;;;;;;;;;5008911;28;20049;-78
2022/06/20 02:53:01;;;;;;;6.22;3.50;;;;;;;;;;5013623;28;20264;-78
2022/06/20 02:55:28;;;;;;;5.70;3.60;;;;;;;;;;5012385;28;20030;-78
2022/06/20 02:57:58;;;;;;;6.72;3.63;;;;;;;;;;5012487;28;20070;-78
2022/06/20 03:00:38;;;;;;;6.20;3.30;;;;;;;;;;5013545;28;20083;-78
2022/06/20 03:03:15;;;;;;;4.82;3.70;;;;;;;;;;5013255;28;20061;-78
2022/06/20 03:05:40;;;;;;;8.32;4.00;;;;;;;;;;5014157;28;20026;-79
2022/06/20 03:08:06;;;;;;;7.90;4.10;;;;;;;;;;5014336;28;20020;-78
2022/06/20 03:10:38;;;;;;;6.70;3.95;;;;;;;;;;5012596;28;20499;-77
2022/06/20 03:13:04;;;;;;;9.65;3.90;;;;;;;;;;5016005;28;20045;-77
2022/06/20 03:15:29;;;;;;;9.55;4.55;;;;;;;;;;5009498;28;20069;-77
2022/06/20 03:17:57;;;;;;;7.47;4.05;;;;;;;;;;5009839;28;20080;-77
2022/06/20 03:20:25;;;;;;;6.43;4.22;;;;;;;;;;5011838;28;20030;-78
2022/06/20 03:23:18;;;;;;;9.75;4.30;;;;;;;;;;5011565;28;20033;-77
2022/06/20 03:25:44;;;;;;;6.22;3.95;;;;;;;;;;5011411;28;20025;-77
2022/06/20 03:28:20;;;;;;;7.57;3.78;;;;;;;;;;5013916;28;20461;-76
2022/06/20 03:30:46;;;;;;;7.13;4.55;;;;;;;;;;5010735;28;20042;-77
2022/06/20 03:33:14;;;;;;;9.10;4.40;;;;;;;;;;5011307;28;20095;-76
2022/06/20 03:35:46;;;;;;;6.15;4.10;;;;;;;;;;5011194;28;20034;-78
2022/06/20 03:38:14;;;;;;;8.05;3.67;;;;;;;;;;5009522;28;20022;-77
2022/06/20 03:40:39;;;;;;;6.03;3.63;;;;;;;;;;5011635;28;20107;-80
2022/06/20 03:43:07;;;;;;;8.02;3.90;;;;;;;;;;5014051;28;20551;-78
2022/06/20 03:45:37;;;;;;;8.00;4.22;;;;;;;;;;5010213;28;20026;-77
2022/06/20 03:48:27;;;;;;;6.28;4.28;;;;;;;;;;5010542;28;20089;-77
2022/06/20 03:51:05;;;;;;;8.10;3.45;;;;;;;;;;4998962;28;20340;-77
2022/06/20 03:53:41;;;;;;;6.25;3.95;;;;;;;;;;5002868;28;20123;-75
2022/06/20 03:56:27;;;;;;;6.18;4.15;;;;;;;;;;5010718;28;20030;-77
2022/06/20 03:59:16;;;;;;;5.28;4.22;;;;;;;;;;4999642;28;20466;-77
2022/06/20 04:01:59;;;;;;;7.00;4.38;;;;;;;;;;5009543;28;20030;-75
2022/06/20 04:04:35;;;;;;;9.35;4.45;;;;;;;;;;5008921;28;20033;-76
2022/06/20 04:07:06;;;;;;;7.40;4.60;;;;;;;;;;5010842;28;20467;-76
2022/06/20 04:12:43;;;;;;;7.70;4.20;;;;;;;;;;5009908;28;20117;-73
2022/06/20 04:15:35;;;;;;;8.65;4.07;;;;;;;;;;5010518;28;20022;-73
2022/06/20 04:18:29;;;;;;;6.18;3.65;;;;;;;;;;5010000;28;20033;-73
2022/06/20 04:21:00;;;;;;;5.72;3.78;;;;;;;;;;5007971;28;20109;-73
2022/06/20 04:23:48;;;;;;;4.68;4.07;;;;;;;;;;5010154;28;20491;-73
2022/06/20 04:26:31;;;;;;;4.38;3.42;;;;;;;;;;5009285;28;20029;-73
2022/06/20 04:29:18;;;;;;;3.85;3.55;;;;;;;;;;5000133;28;20036;-74
2022/06/20 04:31:56;;;;;;;7.82;4.15;;;;;;;;;;5010165;28;20044;-73
2022/06/20 04:34:39;;;;;;;5.20;4.20;;;;;;;;;;5009559;28;20759;-73
2022/06/20 04:37:16;;;;;;;5.55;4.03;;;;;;;;;;5008972;28;20030;-73
2022/06/20 04:39:54;;;;;;;5.95;3.92;;;;;;;;;;5008577;28;20601;-76
2022/06/20 04:42:43;;;;;;;6.45;4.68;;;;;;;;;;5007846;28;20040;-72
2022/06/20 04:45:31;;;;;;;5.78;4.65;;;;;;;;;;5009224;28;20777;-71
2022/06/20 04:48:09;;;;;;;9.48;5.75;;;;;;;;;;5009440;28;20133;-72
2022/06/20 04:50:35;;;;;;;9.93;8.82;;;;;;;;;;5009630;28;20443;-73
2022/06/20 04:53:08;;;;;;;10.27;6.20;;;;;;;;;;5008999;28;20024;-72
2022/06/20 04:55:38;;;;;;;8.10;6.03;;;;;;;;;;4995640;28;20403;-72
2022/06/20 04:58:07;;;;;;;8.02;5.75;;;;;;;;;;5007198;28;20570;-75
2022/06/20 05:00:40;;;;;;;10.30;5.72;;;;;;;;;;5008659;28;20077;-75
2022/06/20 05:03:07;;;;;;;6.95;5.35;;;;;;;;;;5009235;28;20442;-73
2022/06/20 05:05:39;;;;;;;7.82;5.22;;;;;;;;;;5008089;28;20067;-74
2022/06/20 05:08:09;;;;;;;7.63;4.70;;;;;;;;;;5008901;28;20025;-75
2022/06/20 05:10:45;;;;;;;6.47;4.53;;;;;;;;;;5007244;28;20290;-76
2022/06/20 05:13:21;;;;;;;9.52;5.28;;;;;;;;;;5004065;28;20416;-73
2022/06/20 05:15:49;;;;;;;7.10;5.03;;;;;;;;;;5004857;28;20032;-74
2022/06/20 05:18:37;;;;;;;6.30;4.90;;;;;;;;;;5007925;28;20080;-74
2022/06/20 05:21:17;;;;;;;6.65;5.43;;;;;;;;;;4994246;28;20041;-74
2022/06/20 05:23:46;;;;;;;8.55;5.15;;;;;;;;;;5007153;28;20396;-74
2022/06/20 05:26:19;;;;;;;8.23;5.80;;;;;;;;;;5006557;28;20033;-73
2022/06/20 05:28:47;;;;;;;8.05;5.72;;;;;;;;;;4985467;28;20026;-74
2022/06/20 05:31:28;;;;;;;8.82;6.65;;;;;;;;;;5001495;28;20041;-73
2022/06/20 05:34:02;;;;;;;5.53;4.22;;;;;;;;;;5004434;28;20415;-72
2022/06/20 05:36:37;;;;;;;6.72;5.05;;;;;;;;;;5002378;28;20045;-74
2022/06/20 05:39:11;;;;;;;6.38;4.95;;;;;;;;;;5007386;28;20407;-74
2022/06/20 05:41:39;;;;;;;5.65;4.72;;;;;;;;;;5002833;28;20038;-74
2022/06/20 05:44:05;;;;;;;8.07;5.55;;;;;;;;;;5005399;28;20029;-74
2022/06/20 05:46:39;;;;;;;7.38;5.22;;;;;;;;;;5008043;28;20476;-74
2022/06/20 05:49:09;;;;;;;6.38;5.07;;;;;;;;;;4999325;28;20379;-74
2022/06/20 05:51:38;;;;;;;7.70;5.22;;;;;;;;;;4999268;28;20030;-74
2022/06/20 05:54:11;;;;;;;11.02;5.70;;;;;;;;;;4998648;28;20033;-74
2022/06/20 05:56:42;;;;;;;6.13;5.28;;;;;;;;;;4998982;28;20165;-74
2022/06/20 05:59:26;;;;;;;7.60;5.13;;;;;;;;;;4998540;28;20112;-74
2022/06/20 06:01:55;;;;;;;7.05;4.50;;;;;;;;;;5001270;28;20034;-73
2022/06/20 06:04:32;;;;;;;8.73;4.57;;;;;;;;;;5004218;28;20029;-73
2022/06/20 06:07:05;;;;;;;5.97;5.38;;;;;;;;;;5001980;28;20096;-73
2022/06/20 06:09:30;;;;;;;;;;;;;;;;;;4998854;28;20045;-73
2022/06/20 06:12:01;;;;;;;5.93;5.33;;;;;;;;;;5008345;28;20138;-74
2022/06/20 06:14:46;;;;;;;9.02;6.00;;;;;;;;;;5002601;28;20030;-76
2022/06/20 06:17:21;;;;;;;6.68;4.97;;;;;;;;;;5002124;28;20400;-74
2022/06/20 06:19:57;;;;;;;7.20;5.30;;;;;;;;;;5004656;28;20379;-76
2022/06/20 06:22:33;;;;;;;5.45;4.70;;;;;;;;;;5010985;28;20055;-74
2022/06/20 06:25:11;;;;;;;6.93;4.97;;;;;;;;;;5009217;28;20092;-74
2022/06/20 06:27:37;;;;;;;6.95;4.25;;;;;;;;;;5006892;28;20022;-74
2022/06/20 06:30:18;;;;;;;6.30;4.97;;;;;;;;;;4998299;28;20057;-74
2022/06/20 06:32:51;;;;;;;7.68;5.25;;;;;;;;;;4988338;28;20025;-73
2022/06/20 06:35:48;;;;;;;7.10;5.78;;;;;;;;;;5001176;28;20051;-72
2022/06/20 06:38:56;;;;;;;9.43;5.80;;;;;;;;;;4994964;28;20475;-73
2022/06/20 06:41:29;;;;;;;7.22;5.55;;;;;;;;;;4985096;28;20531;-74
2022/06/20 06:43:57;;;;;;;7.53;6.28;;;;;;;;;;5002758;28;20479;-74
2022/06/20 06:46:33;;;;;;;10.63;7.07;;;;;;;;;;4997902;28;20137;-73
2022/06/20 06:49:19;;;;;;;10.18;6.40;;;;;;;;;;5001225;28;20088;-73
2022/06/20 06:51:51;;;;;;;8.60;6.38;;;;;;;;;;5004222;28;20042;-74
2022/06/20 06:54:40;;;;;;;6.18;5.57;;;;;;;;;;4996052;28;20017;-75
2022/06/20 06:57:13;;;;;;;6.88;5.32;;;;;;;;;;5002421;28;20400;-76
2022/06/20 06:59:51;;;;;;;6.10;4.85;;;;;;;;;;4998112;28;20025;-76
2022/06/20 07:02:23;;;;;;;7.95;5.35;;;;;;;;;;5003816;28;20036;-73
2022/06/20 07:04:57;;;;;;;5.30;4.80;;;;;;;;;;5002514;28;20506;-76
2022/06/20 07:07:28;;;;;;;5.47;4.97;;;;;;;;;;5003571;28;20486;-73
2022/06/20 07:09:54;;;;;;;5.82;4.85;;;;;;;;;;5003205;28;20029;-75
2022/06/20 07:12:44;;;;;;;5.72;4.90;;;;;;;;;;5006914;28;20112;-79
2022/06/20 07:15:19;;;;;;;5.78;4.90;;;;;;;;;;5000246;28;20387;-75
2022/06/20 07:17:54;;;;;;;5.25;4.57;;;;;;;;;;4998137;28;20296;-76
2022/06/20 07:20:24;;;;;;;6.88;4.70;;;;;;;;;;5006042;28;20024;-74
2022/06/20 07:22:50;;;;;;;7.30;5.07;;;;;;;;;;5004725;28;20022;-77
2022/06/20 07:25:30;;;;;;;5.10;4.60;;;;;;;;;;5005963;28;20388;-76
2022/06/20 07:28:13;;;;;;;5.05;4.47;;;;;;;;;;5004145;28;20052;-74
2022/06/20 07:30:47;;;;;;;4.50;4.10;;;;;;;;;;5005954;28;20046;-75
2022/06/20 07:33:23;;;;;;;5.75;4.85;;;;;;;;;;4990066;28;20141;-76
2022/06/20 07:35:54;;;;;;;5.68;4.38;;;;;;;;;;5014017;28;20029;-72
2022/06/20 07:38:28;;;;;;;5.97;4.50;;;;;;;;;;5003416;28;20030;-76
2022/06/20 07:40:59;;;;;;;7.15;4.80;;;;;;;;;;5007163;28;20146;-76
2022/06/20 07:43:42;;;;;;;7.63;5.47;;;;;;;;;;5003225;28;20119;-73
2022/06/20 07:46:12;;;;;;;6.78;5.10;;;;;;;;;;5003035;28;20553;-75
2022/06/20 07:48:41;;;;;;;6.68;4.30;;;;;;;;;;5004543;28;20033;-76
2022/06/20 07:51:13;;;;;;;6.78;4.13;;;;;;;;;;5005868;28;20025;-75
2022/06/20 07:53:47;;;;;;;5.05;4.30;;;;;;;;;;5003369;28;20034;-74
2022/06/20 07:56:20;;;;;;;5.15;4.43;;;;;;;;;;4979208;28;20144;-75
2022/06/20 07:58:54;;;;;;;5.70;4.90;;;;;;;;;;5001738;28;20120;-74
2022/06/20 08:01:27;;;;;;;5.32;4.40;;;;;;;;;;5001534;28;20018;-75
2022/06/20 08:04:03;;;;;;;5.22;4.15;;;;;;;;;;5003110;28;20092;-76
2022/06/20 08:06:53;;;;;;;6.53;4.68;;;;;;;;;;5001698;28;20447;-76
2022/06/20 08:09:38;;;;;;;4.90;4.40;;;;;;;;;;5003572;28;20381;-76
2022/06/20 08:12:19;;;;;;;4.63;4.18;;;;;;;;;;4995779;28;20034;-74
2022/06/20 08:15:02;;;;;;;5.65;4.47;;;;;;;;;;4985449;28;20112;-75
2022/06/20 08:17:29;;;;;;;6.05;4.43;;;;;;;;;;5004540;28;20025;-76
2022/06/20 08:19:56;;;;;;;7.05;4.45;;;;;;;;;;4985354;28;20022;-76
2022/06/20 08:22:43;;;;;;;5.15;4.65;;;;;;;;;;5003719;28;20075;-75
2022/06/20 08:25:20;;;;;;;4.05;3.63;;;;;;;;;;4998962;28;20022;-76
2022/06/20 08:28:00;;;;;;;5.00;3.72;;;;;;;;;;5004991;28;20464;-76
2022/06/20 08:30:41;;;;;;;4.85;3.75;;;;;;;;;;4996886;28;20026;-74
2022/06/20 08:33:09;;;;;;;4.10;3.40;;;;;;;;;;4988394;28;20022;-76
2022/06/20 08:35:57;;;;;;;4.10;3.67;;;;;;;;;;5005066;28;20028;-76
2022/06/20 08:38:34;;;;;;;4.70;4.15;;;;;;;;;;5004977;28;20033;-76
2022/06/20 08:41:37;;;;;;;4.70;4.20;;;;;;;;;;5005691;28;20044;-76
2022/06/20 08:44:25;;;;;;;5.53;2.60;;;;;;;;;;5007598;28;20081;-77
2022/06/20 08:47:09;;;;;;;2.75;2.47;;;;;;;;;;5007885;28;20494;-78
2022/06/20 08:50:02;;;;;;;3.40;2.22;;;;;;;;;;5009879;28;20033;-78
2022/06/20 08:53:18;;;;;;;2.47;2.28;;;;;;;;;;5011249;28;20037;-80
2022/06/20 08:56:11;;;;;;;2.10;1.90;;;;;;;;;;4977176;28;20447;-80
2022/06/20 08:58:55;;;;;;;2.40;2.13;;;;;;;;;;5012122;28;20041;-77
2022/06/20 09:01:32;;;;;;;3.30;2.70;;;;;;;;;;5011781;28;20541;-74
2022/06/20 09:04:29;;;;;;;4.05;3.33;;;;;;;;;;5006282;28;20026;-80
2022/06/20 09:07:10;;;;;;;4.22;3.17;;;;;;;;;;5012210;28;20545;-82
2022/06/20 09:09:38;;;;;;;4.55;4.07;;;;;;;;;;5009487;28;20113;-80
2022/06/20 09:12:36;;;;;;;5.65;5.15;;;;;;;;;;5009324;28;20033;-80
2022/06/20 09:15:26;;;;;;;5.82;5.30;;;;;;;;;;5011844;28;20021;-82
2022/06/20 09:18:01;;;;;;;6.72;6.03;;;;;;;;;;5006332;28;20437;-80
2022/06/20 09:20:34;;;;;;;7.25;6.35;;;;;;;;;;5005052;28;20396;-77
2022/06/20 09:23:05;;;;;;;8.13;7.22;;;;;;;;;;4995897;28;20033;-74
2022/06/20 09:25:52;;;;;;;8.10;7.30;;;;;;;;;;5004769;28;20037;-74
2022/06/20 09:28:34;;;;;;;8.93;7.72;;;;;;;;;;5004436;28;20030;-75
2022/06/20 09:31:17;;;;;;;10.77;9.07;;;;;;;;;;5006440;28;20034;-75
2022/06/20 09:33:45;;;;;;;13.85;9.73;;;;;;;;;;5007381;28;20025;-75
2022/06/20 09:36:32;;;;;;;11.65;10.05;;;;;;;;;;5004974;28;20029;-76
2022/06/20 09:39:25;;;;;;;12.38;10.68;;;;;;;;;;5005495;28;20082;-75
2022/06/20 09:42:06;;;;;;;11.98;10.73;;;;;;;;;;5005291;28;20053;-76
2022/06/20 09:44:49;;;;;;;13.27;11.07;;;;;;;;;;5003518;28;20029;-77
2022/06/20 09:47:23;;;;;;;16.05;12.48;;;;;;;;;;5002434;28;20153;-75
2022/06/20 09:50:24;;;;;;;13.65;11.02;;;;;;;;;;5004448;28;20114;-76
2022/06/20 09:53:06;;;;;;;15.27;11.68;;;;;;;;;;5003053;28;20538;-77
2022/06/20 09:55:43;;;;;;;18.85;12.30;;;;;;;;;;4984447;28;20561;-74
2022/06/20 09:58:29;;;;;;;14.95;12.05;;;;;;;;;;4997060;28;20030;-77
2022/06/20 10:01:05;;;;;;;16.08;11.43;;;;;;;;;;5002509;28;20033;-78
2022/06/20 10:03:55;;;;;;;14.43;11.70;;;;;;;;;;5006260;28;20057;-76
2022/06/20 10:06:30;;;;;;;15.23;12.63;;;;;;;;;;4998863;28;20427;-76
2022/06/20 10:09:10;;;;;;;14.13;12.55;;;;;;;;;;5005617;28;20049;-75
2022/06/20 10:11:40;;;;;;;14.85;12.18;;;;;;;;;;5003696;28;20022;-75
2022/06/20 10:14:34;;;;;;;13.82;11.45;;;;;;;;;;5008038;28;20033;-76
2022/06/20 10:17:12;;;;;;;15.23;11.73;;;;;;;;;;4996063;28;20603;-75
2022/06/20 10:20:01;;;;;;;15.90;12.57;;;;;;;;;;5009289;28;20080;-77
2022/06/20 10:22:57;;;;;;;17.55;12.60;;;;;;;;;;4990758;28;20181;-76
2022/06/20 10:25:57;;;;;;;16.77;12.07;;;;;;;;;;5008982;28;20022;-76
2022/06/20 10:28:56;;;;;;;15.07;11.95;;;;;;;;;;5008826;28;20507;-77
2022/06/20 10:31:33;;;;;;;17.70;12.82;;;;;;;;;;4989252;28;20088;-75
2022/06/20 10:34:25;;;;;;;16.77;12.40;;;;;;;;;;5008733;28;20029;-77
2022/06/20 10:37:09;;;;;;;16.70;12.38;;;;;;;;;;5009927;28;20492;-78
2022/06/20 10:40:00;;;;;;;16.42;12.18;;;;;;;;;;5006579;28;20060;-75
2022/06/20 10:42:52;;;;;;;15.40;11.65;;;;;;;;;;4975392;28;20037;-79
2022/06/20 10:45:33;;;;;;;13.80;12.23;;;;;;;;;;4991071;28;20077;-77
2022/06/20 10:48:36;;;;;;;15.55;11.85;;;;;;;;;;4993068;28;20030;-80
2022/06/20 10:51:29;;;;;;;14.35;11.75;;;;;;;;;;4994422;28;20062;-79
2022/06/20 10:54:09;;;;;;;12.15;10.80;;;;;;;;;;4993558;28;20346;-80
2022/06/20 10:57:02;;;;;;;14.18;10.48;;;;;;;;;;4998265;28;20320;-83
2022/06/20 10:59:53;;;;;;;11.70;10.55;;;;;;;;;;4982586;28;20053;-78
2022/06/20 11:02:30;;;;;;;10.38;8.90;;;;;;;;;;5002595;28;20033;-78
2022/06/20 11:04:59;;;;;;;10.68;8.77;;;;;;;;;;5015701;28;20034;-81
2022/06/20 11:07:36;;;;;;;8.90;8.10;;;;;;;;;;5019159;28;20061;-82
2022/06/20 11:10:21;;;;;;;9.05;8.15;;;;;;;;;;5016474;28;20056;-80
2022/06/20 11:13:14;;;;;;;9.13;7.88;;;;;;;;;;5017681;28;20163;-81
2022/06/20 11:15:50;;;;;;;9.80;7.93;;;;;;;;;;5017006;28;20435;-80
2022/06/20 11:18:34;;;;;;;9.70;8.15;;;;;;;;;;5017059;28;20029;-81
2022/06/20 11:21:29;;;;;;;11.90;8.77;;;;;;;;;;5017002;28;20036;-79
2022/06/20 11:24:06;;;;;;;8.65;7.75;;;;;;;;;;5017821;28;20456;-81
2022/06/20 11:26:52;;;;;;;8.55;7.75;;;;;;;;;;5008820;28;20026;-80
2022/06/20 11:29:33;;;;;;;9.68;7.50;;;;;;;;;;4998585;28;20030;-78
2022/06/20 11:32:36;;;;;;;8.10;7.30;;;;;;;;;;5012892;28;20050;-81
2022/06/20 11:35:16;;;;;;;7.07;6.22;;;;;;;;;;4992993;28;20041;-78
2022/06/20 11:38:03;;;;;;;7.65;6.82;;;;;;;;;;4994932;28;20120;-77
2022/06/20 11:40:40;;;;;;;8.07;7.28;;;;;;;;;;5014977;28;20044;-80
2022/06/20 11:43:30;;;;;;;8.00;7.20;;;;;;;;;;5014225;28;20494;-78
2022/06/20 11:46:23;;;;;;;7.90;6.97;;;;;;;;;;5011361;28;20044;-79
2022/06/20 11:49:03;;;;;;;8.27;6.57;;;;;;;;;;5013250;28;20835;-79
2022/06/20 11:51:51;;;;;;;7.60;6.90;;;;;;;;;;5015896;28;20022;-80
2022/06/20 11:54:36;;;;;;;8.02;6.15;;;;;;;;;;5013737;28;20025;-80
2022/06/20 11:57:22;;;;;;;6.13;5.53;;;;;;;;;;4995615;28;20033;-77
2022/06/20 12:00:06;;;;;;;6.05;5.45;;;;;;;;;;5011886;28;20026;-79
2022/06/20 12:02:53;;;;;;;5.50;5.00;;;;;;;;;;4999945;28;20029;-79
2022/06/20 12:05:18;;;;;;;5.47;4.97;;;;;;;;;;4994504;28;20030;-79
2022/06/20 12:07:47;;;;;;;5.85;5.35;;;;;;;;;;4993379;28;20026;-76
2022/06/20 12:10:37;;;;;;;6.13;5.40;;;;;;;;;;5004510;28;20305;-79
2022/06/20 12:13:23;;;;;;;6.93;5.40;;;;;;;;;;5014436;28;20033;-79
2022/06/20 12:16:30;;;;;;;5.35;4.82;;;;;;;;;;5013613;28;20423;-78
2022/06/20 12:24:49;;;;;;;2.08;1.88;;;;;;;;;;5013423;28;20028;-78
2022/06/20 12:27:17;;;;;;;2.13;1.73;;;;;;;;;;5011560;28;20026;-77
2022/06/20 12:29:43;;;;;;;2.28;1.95;;;;;;;;;;5008519;28;20044;-75
2022/06/20 12:32:34;;;;;;;2.15;1.90;;;;;;;;;;5011463;28;20026;-76
2022/06/20 12:35:11;;;;;;;1.88;1.40;;;;;;;;;;5010211;28;20109;-77
2022/06/20 12:37:50;;;;;;;1.83;1.55;;;;;;;;;;5008341;28;20029;-78
2022/06/20 12:40:33;;;;;;;2.40;1.50;;;;;;;;;;5009189;28;20042;-79
2022/06/20 12:43:14;;;;;;;1.90;1.48;;;;;;;;;;5009078;28;20033;-77
2022/06/20 12:45:39;;;;;;;2.13;1.83;;;;;;;;;;5020962;28;20193;-77
2022/06/20 12:48:23;;;;;;;1.60;1.50;;;;;;;;;;5009584;28;20503;-77
2022/06/20 12:51:11;;;;;;;1.70;1.60;;;;;;;;;;5008426;28;20400;-76
2022/06/20 12:53:59;;;;;;;2.85;2.05;;;;;;;;;;5011723;28;20282;-78
2022/06/20 12:57:02;;;;;;;2.20;2.00;;;;;;;;;;5012194;28;20033;-76
2022/06/20 13:00:01;;;;;;;1.95;1.67;;;;;;;;;;5004288;28;20030;-75
2022/06/20 13:02:48;;;;;;;1.60;1.50;;;;;;;;;;4989956;28;20034;-76
2022/06/20 13:05:39;;;;;;;2.28;1.75;;;;;;;;;;5008402;28;20040;-74
2022/06/20 13:08:29;;;;;;;1.70;1.60;;;;;;;;;;5008380;28;20108;-76
2022/06/20 13:11:32;;;;;;;3.00;2.00;;;;;;;;;;5006889;28;20623;-76
2022/06/20 13:14:23;;;;;;;1.90;1.67;;;;;;;;;;5007706;28;20057;-75
2022/06/20 13:17:13;;;;;;;3.42;1.92;;;;;;;;;;5006855;28;20045;-74
2022/06/20 13:19:57;;;;;;;2.30;1.45;;;;;;;;;;5007197;28;20026;-73
2022/06/20 13:22:40;;;;;;;4.05;1.60;;;;;;;;;;5006589;28;20487;-75
2022/06/20 13:25:05;;;;;;;;;;;;;;;;;;5000636;28;20061;-77
2022/06/20 13:27:47;;;;;;;1.60;1.27;;;;;;;;;;5008731;28;20367;-74
2022/06/20 13:30:19;;;;;;;2.40;1.23;;;;;;;;;;5036011;22;20298;-72
2022/06/20 13:33:08;;;;;;;1.55;1.20;;;;;;;;;;5027942;28;20505;-73
2022/06/20 13:35:46;;;;;;;2.13;1.40;;;;;;;;;;5028268;28;20041;-72
2022/06/20 13:38:19;;;;;;;1.40;1.30;;;;;;;;;;5027096;28;20471;-70
2022/06/20 13:40:53;;;;;;;2.10;1.23;;;;;;;;;;5027631;28;20037;-73
2022/06/20 13:43:33;;;;;;;2.15;1.30;;;;;;;;;;5027812;28;20053;-72
2022/06/20 13:46:07;;;;;;;2.13;1.48;;;;;;;;;;5026112;28;20030;-72
2022/06/20 13:48:47;;;;;;;3.83;1.63;;;;;;;;;;5027853;28;20028;-72
2022/06/20 13:51:20;;;;;;;2.55;1.20;;;;;;;;;;5027773;28;20036;-71
2022/06/20 13:54:04;;;;;;;3.00;2.05;;;;;;;;;;5027308;28;20479;-70
2022/06/20 13:56:37;;;;;;;4.05;1.60;;;;;;;;;;5027374;28;20436;-75
2022/06/20 13:59:27;;;;;;;5.00;1.58;;;;;;;;;;5020227;28;20280;-71
2022/06/20 14:01:55;;;;;;;5.35;2.15;;;;;;;;;;5027412;28;20125;-72
2022/06/20 14:04:21;;;;;;;2.90;1.88;;;;;;;;;;5027546;28;20518;-71
2022/06/20 14:06:54;;;;;;;4.60;2.22;;;;;;;;;;5027346;28;20026;-74
2022/06/20 14:09:41;;;;;;;3.00;1.90;;;;;;;;;;5027455;28;20155;-72
2022/06/20 14:12:22;;;;;;;2.35;1.80;;;;;;;;;;5029358;28;20025;-73
2022/06/20 14:14:52;;;;;;;3.83;2.30;;;;;;;;;;5024775;28;20048;-70
2022/06/20 14:17:27;;;;;;;3.47;2.22;;;;;;;;;;5026450;28;20125;-70
2022/06/20 14:19:59;;;;;;;3.28;2.47;;;;;;;;;;5025670;28;20053;-72
2022/06/20 14:22:47;;;;;;;2.53;2.00;;;;;;;;;;5020911;28;20025;-71
2022/06/20 14:25:38;;;;;;;4.90;2.45;;;;;;;;;;5026531;28;20033;-70
2022/06/20 14:28:16;;;;;;;6.13;2.40;;;;;;;;;;5025825;28;20497;-72
2022/06/20 14:30:46;;;;;;;4.60;2.65;;;;;;;;;;5027217;28;20037;-74
2022/06/20 14:33:24;;;;;;;4.75;2.60;;;;;;;;;;5028771;28;20830;-71
2022/06/20 14:36:19;;;;;;;6.72;2.92;;;;;;;;;;5030116;28;20479;-71
2022/06/20 14:38:50;;;;;;;4.03;2.92;;;;;;;;;;5000791;28;20045;-72
2022/06/20 14:41:44;;;;;;;4.35;2.75;;;;;;;;;;5011567;28;20030;-71
2022/06/20 14:44:24;;;;;;;5.28;2.58;;;;;;;;;;5011571;28;20025;-75
2022/06/20 14:47:19;;;;;;;4.18;3.08;;;;;;;;;;5030129;28;20505;-73
2022/06/20 14:49:56;;;;;;;2.83;2.53;;;;;;;;;;5030366;28;20041;-73
2022/06/20 14:52:54;;;;;;;2.92;2.63;;;;;;;;;;5031141;28;20503;-72
2022/06/20 14:55:34;;;;;;;4.68;2.60;;;;;;;;;;4979909;28;20167;-72
2022/06/20 14:58:30;;;;;;;3.30;2.80;;;;;;;;;;5029024;28;20057;-74
2022/06/20 15:01:02;;;;;;;4.35;2.55;;;;;;;;;;5027859;28;20036;-71
2022/06/20 15:03:39;;;;;;;4.88;2.70;;;;;;;;;;5024826;28;20572;-69
2022/06/20 15:06:14;;;;;;;4.45;2.45;;;;;;;;;;5029178;28;20120;-73
2022/06/20 15:08:46;;;;;;;3.75;2.85;;;;;;;;;;5025617;28;20505;-75
2022/06/20 15:11:28;;;;;;;5.18;3.25;;;;;;;;;;5023863;28;20479;-76
2022/06/20 15:14:22;;;;;;;6.30;3.10;;;;;;;;;;5031688;28;20041;-73
2022/06/20 15:16:54;;;;;;;6.93;3.13;;;;;;;;;;5030596;28;20079;-71
2022/06/20 15:19:41;;;;;;;5.25;2.90;;;;;;;;;;5031235;28;20112;-73
2022/06/20 15:22:18;;;;;;;3.42;2.85;;;;;;;;;;5031598;28;20374;-73
2022/06/20 15:24:53;;;;;;;4.35;3.15;;;;;;;;;;5031468;28;20037;-75
2022/06/20 15:27:23;;;;;;;3.78;3.10;;;;;;;;;;5031038;28;20021;-78
2022/06/20 15:30:16;;;;;;;5.63;3.15;;;;;;;;;;5030773;28;20033;-73
2022/06/20 15:32:44;;;;;;;4.60;3.20;;;;;;;;;;5019843;28;20453;-73
2022/06/20 15:38:02;;;;;;;5.40;2.95;;;;;;;;;;5030648;28;20128;-73
2022/06/20 15:40:36;;;;;;;4.60;3.33;;;;;;;;;;5030854;28;20044;-72
2022/06/20 15:43:16;;;;;;;4.80;3.28;;;;;;;;;;5030228;28;20021;-72
2022/06/20 15:45:50;;;;;;;4.63;3.10;;;;;;;;;;5030723;28;20083;-74
2022/06/20 15:48:29;;;;;;;3.67;3.13;;;;;;;;;;5030625;28;20383;-71
2022/06/20 15:51:16;;;;;;;4.40;3.08;;;;;;;;;;5030442;28;20025;-74
2022/06/20 15:54:12;;;;;;;4.78;3.70;;;;;;;;;;5030537;28;20052;-72
2022/06/20 15:57:01;;;;;;;4.32;3.30;;;;;;;;;;5030511;28;20194;-72
2022/06/20 15:59:49;;;;;;;5.80;3.40;;;;;;;;;;5030859;28;20033;-77
2022/06/20 16:02:33;;;;;;;4.10;3.03;;;;;;;;;;5030973;28;20026;-74